createdAt,value
2022-12-23T00:01:24.171Z,32.75
2022-12-23T00:03:51.232Z,40.03
2022-12-23T00:06:19.771Z,31.13
2022-12-23T00:08:46.939Z,37.80
2022-12-23T00:11:17.009Z,37.72
2022-12-23T00:14:05.557Z,30.95
2022-12-23T00:16:35.838Z,37.08
2022-12-23T00:19:02.785Z,34.35
2022-12-23T00:21:29.546Z,30.83
2022-12-23T00:23:56.332Z,45.33
2022-12-23T00:26:24.810Z,74.35
2022-12-23T00:28:55.628Z,68.18
2022-12-23T00:31:22.521Z,60.05
2022-12-23T00:33:51.631Z,44.22
2022-12-23T00:36:21.108Z,58.20
2022-12-23T00:39:11.534Z,56.35
2022-12-23T00:41:57.447Z,57.85
2022-12-23T00:44:25.853Z,69.03
2022-12-23T00:46:52.843Z,72.30
2022-12-23T00:49:39.243Z,73.50
2022-12-23T00:52:07.836Z,73.68
2022-12-23T00:54:34.731Z,70.97
2022-12-23T00:57:02.267Z,83.78
2022-12-23T00:59:30.513Z,78.05
2022-12-23T01:02:16.012Z,80.60
2022-12-23T01:05:01.346Z,89.22
2022-12-23T01:07:28.286Z,81.13
2022-12-23T01:09:55.153Z,91.85
2022-12-23T01:12:22.042Z,75.22
2022-12-23T01:14:50.346Z,87.28
2022-12-23T01:17:17.343Z,56.75
2022-12-23T01:19:44.264Z,83.70
2022-12-23T01:22:11.052Z,75.47
2022-12-23T01:24:37.752Z,81.60
2022-12-23T01:27:04.510Z,73.53
2022-12-23T01:29:31.328Z,73.22
2022-12-23T01:31:59.489Z,72.70
2022-12-23T01:34:31.087Z,69.72
2022-12-23T01:37:01.248Z,67.82
2022-12-23T01:39:28.287Z,82.40
2022-12-23T01:42:13.826Z,84.55
2022-12-23T01:44:54.019Z,72.13
2022-12-23T01:47:29.503Z,71.93
2022-12-23T01:50:00.490Z,68.32
2022-12-23T01:52:27.941Z,64.90
2022-12-23T01:54:56.474Z,79.25
2022-12-23T01:57:24.554Z,82.43
2022-12-23T02:00:10.487Z,73.00
2022-12-23T02:02:59.893Z,66.68
2022-12-23T02:05:27.332Z,69.65
2022-12-23T02:08:13.662Z,65.18
2022-12-23T02:11:00.231Z,57.83
2022-12-23T02:13:35.009Z,70.85
2022-12-23T02:16:17.884Z,59.45
2022-12-23T02:19:01.024Z,70.50
2022-12-23T02:22:05.192Z,65.72
2022-12-23T02:25:00.542Z,67.68
2022-12-23T02:27:30.242Z,61.30
2022-12-23T02:33:16.953Z,59.05
2022-12-23T02:35:53.483Z,58.38
2022-12-23T02:38:26.535Z,46.40
2022-12-23T02:41:01.993Z,53.13
2022-12-23T02:43:35.626Z,60.03
2022-12-23T02:46:07.809Z,58.80
2022-12-23T02:48:42.317Z,53.85
2022-12-23T02:51:13.660Z,58.35
2022-12-23T02:53:45.956Z,65.30
2022-12-23T02:56:15.423Z,59.42
2022-12-23T02:58:47.181Z,66.07
2022-12-23T03:01:16.409Z,60.95
2022-12-23T03:03:47.559Z,62.58
2022-12-23T03:06:20.596Z,59.45
2022-12-23T03:08:49.729Z,66.22
2022-12-23T03:11:18.008Z,65.38
2022-12-23T03:14:12.733Z,76.30
2022-12-23T03:16:51.945Z,57.22
2022-12-23T03:19:26.597Z,60.20
2022-12-23T03:21:59.971Z,61.00
2022-12-23T03:24:37.635Z,57.25
2022-12-23T03:27:09.823Z,70.40
2022-12-23T03:29:42.774Z,61.25
2022-12-23T03:32:12.416Z,53.05
2022-12-23T03:37:13.499Z,52.13
2022-12-23T03:39:43.773Z,42.50
2022-12-23T03:42:19.331Z,44.33
2022-12-23T03:47:44.815Z,45.13
2022-12-23T03:50:16.843Z,35.85
2022-12-23T03:52:51.669Z,38.40
2022-12-23T03:55:23.514Z,39.25
2022-12-23T03:57:58.129Z,30.55
2022-12-23T04:00:28.953Z,38.78
2022-12-23T04:03:03.720Z,38.50
2022-12-23T04:05:35.086Z,34.75
2022-12-23T04:08:10.357Z,43.42
2022-12-23T04:13:04.780Z,34.83
2022-12-23T04:15:32.023Z,39.80
2022-12-23T04:17:59.259Z,42.70
2022-12-23T04:20:26.141Z,48.40
2022-12-23T04:22:54.332Z,40.92
2022-12-23T04:25:21.117Z,40.75
2022-12-23T04:27:47.958Z,36.60
2022-12-23T04:30:15.206Z,50.35
2022-12-23T04:32:42.448Z,48.13
2022-12-23T04:35:11.140Z,53.60
2022-12-23T04:37:38.344Z,51.28
2022-12-23T04:40:07.954Z,43.40
2022-12-23T04:45:01.404Z,39.13
2022-12-23T04:47:28.252Z,37.40
2022-12-23T04:49:55.080Z,42.70
2022-12-23T04:52:22.104Z,45.30
2022-12-23T04:54:48.999Z,42.97
2022-12-23T04:57:17.506Z,39.30
2022-12-23T04:59:44.397Z,37.13
2022-12-23T05:02:11.805Z,33.50
2022-12-23T05:04:38.739Z,32.28
2022-12-23T05:07:05.513Z,35.40
2022-12-23T05:09:32.528Z,46.22
2022-12-23T05:11:59.561Z,124.07
2022-12-23T05:14:27.916Z,97.82
2022-12-23T05:16:54.728Z,180.75
2022-12-23T05:19:21.638Z,180.02
2022-12-23T05:21:48.509Z,104.22
2022-12-23T05:24:15.363Z,64.63
2022-12-23T05:26:47.619Z,119.85
2022-12-23T05:29:14.846Z,33.78
2022-12-23T05:31:43.404Z,16.20
2022-12-23T05:34:10.376Z,55.05
2022-12-23T05:36:37.833Z,73.60
2022-12-23T05:39:04.699Z,62.08
2022-12-23T05:41:31.820Z,85.47
2022-12-23T05:43:58.544Z,74.60
2022-12-23T05:46:27.055Z,80.68
2022-12-23T05:48:55.545Z,83.60
2022-12-23T05:51:22.320Z,104.53
2022-12-23T05:53:49.369Z,47.50
2022-12-23T05:56:16.427Z,81.65
2022-12-23T05:58:43.628Z,56.13
2022-12-23T06:01:10.615Z,42.40
2022-12-23T06:03:37.535Z,49.53
2022-12-23T06:06:06.323Z,68.25
2022-12-23T06:08:33.228Z,70.85
2022-12-23T06:11:00.080Z,45.22
2022-12-23T06:13:26.884Z,47.75
2022-12-23T06:15:53.928Z,39.80
2022-12-23T06:18:20.859Z,41.33
2022-12-23T06:20:48.515Z,43.35
2022-12-23T06:23:16.677Z,68.65
2022-12-23T06:25:43.485Z,37.65
2022-12-23T06:28:10.409Z,28.73
2022-12-23T06:30:37.239Z,38.58
2022-12-23T06:33:04.213Z,50.70
2022-12-23T06:35:30.968Z,29.73
2022-12-23T06:37:57.821Z,33.47
2022-12-23T06:40:26.017Z,28.15
2022-12-23T06:42:52.855Z,22.52
2022-12-23T06:45:20.993Z,29.65
2022-12-23T06:47:47.839Z,29.98
2022-12-23T06:50:14.832Z,29.60
2022-12-23T06:52:41.735Z,24.20
2022-12-23T06:55:10.017Z,38.80
2022-12-23T06:57:38.281Z,42.10
2022-12-23T07:00:06.041Z,47.95
2022-12-23T07:02:33.294Z,27.88
2022-12-23T07:05:00.329Z,22.52
2022-12-23T07:07:27.405Z,82.40
2022-12-23T07:09:54.212Z,253.00
2022-12-23T07:12:21.044Z,106.55
2022-12-23T07:14:49.151Z,43.15
2022-12-23T07:17:16.143Z,39.20
2022-12-23T07:19:42.865Z,74.03
2022-12-23T07:22:12.310Z,49.78
2022-12-23T07:24:38.985Z,38.90
2022-12-23T07:27:05.756Z,43.30
2022-12-23T07:29:32.480Z,102.05
2022-12-23T07:32:01.735Z,64.07
2022-12-23T07:34:28.605Z,45.40
2022-12-23T07:36:55.742Z,77.43
2022-12-23T07:39:22.606Z,35.42
2022-12-23T07:41:55.494Z,25.60
2022-12-23T07:44:30.713Z,47.78
2022-12-23T07:46:57.499Z,42.60
2022-12-23T07:49:25.611Z,39.13
2022-12-23T07:51:52.336Z,46.58
2022-12-23T07:54:19.247Z,41.40
2022-12-23T07:56:46.060Z,79.07
2022-12-23T07:59:12.909Z,58.92
2022-12-23T08:01:40.260Z,80.78
2022-12-23T08:04:07.111Z,80.63
2022-12-23T08:06:36.796Z,44.45
2022-12-23T08:11:30.359Z,45.20
2022-12-23T08:13:57.219Z,35.08
2022-12-23T08:16:24.321Z,35.20
2022-12-23T08:18:51.080Z,41.80
2022-12-23T08:21:20.002Z,36.72
2022-12-23T08:23:48.718Z,47.03
2022-12-23T08:26:20.002Z,33.08
2022-12-23T08:28:48.012Z,36.70
2022-12-23T08:31:17.296Z,43.28
2022-12-23T08:33:46.431Z,54.75
2022-12-23T08:36:19.235Z,49.42
2022-12-23T08:38:52.728Z,53.25
2022-12-23T08:41:22.295Z,50.28
2022-12-23T08:43:49.524Z,68.65
2022-12-23T08:46:16.301Z,92.13
2022-12-23T08:48:48.863Z,143.02
2022-12-23T08:51:18.744Z,124.65
2022-12-23T08:53:46.136Z,74.22
2022-12-23T08:56:18.608Z,62.17
2022-12-23T08:58:47.933Z,85.05
2022-12-23T09:01:17.403Z,77.63
2022-12-23T09:03:45.134Z,78.25
2022-12-23T09:06:14.830Z,54.75
2022-12-23T09:08:42.465Z,51.35
2022-12-23T09:11:10.209Z,34.88
2022-12-23T09:13:38.507Z,36.03
2022-12-23T09:16:06.600Z,71.32
2022-12-23T09:18:34.112Z,27.17
2022-12-23T09:21:02.834Z,38.90
2022-12-23T09:23:29.668Z,34.83
2022-12-23T09:25:56.560Z,35.08
2022-12-23T09:28:23.998Z,31.98
2022-12-23T09:30:52.641Z,37.50
2022-12-23T09:33:19.899Z,26.27
2022-12-23T09:35:46.765Z,35.60
2022-12-23T09:38:13.713Z,28.48
2022-12-23T09:40:42.368Z,20.65
2022-12-23T09:43:20.510Z,19.45
2022-12-23T09:46:09.665Z,29.90
2022-12-23T09:48:41.238Z,17.00
2022-12-23T09:51:10.690Z,26.52
2022-12-23T09:53:48.500Z,25.35
2022-12-23T09:56:23.175Z,22.15
2022-12-23T09:59:01.878Z,18.02
2022-12-23T10:01:33.756Z,26.67
2022-12-23T10:04:37.047Z,22.70
2022-12-23T10:07:17.543Z,42.17
2022-12-23T10:09:49.189Z,19.02
2022-12-23T10:12:27.228Z,18.67
2022-12-23T10:14:58.628Z,16.45
2022-12-23T10:17:31.612Z,13.25
2022-12-23T10:20:02.225Z,22.02
2022-12-23T10:22:36.742Z,11.93
2022-12-23T10:25:11.030Z,8.50
2022-12-23T10:27:40.204Z,7.32
2022-12-23T10:30:34.281Z,8.27
2022-12-23T10:33:08.861Z,10.88
2022-12-23T10:35:54.028Z,12.02
2022-12-23T10:38:33.244Z,8.48
2022-12-23T10:41:09.446Z,12.85
2022-12-23T10:43:50.213Z,12.85
2022-12-23T10:46:28.230Z,11.57
2022-12-23T10:49:03.757Z,11.32
2022-12-23T10:51:34.292Z,13.05
2022-12-23T10:54:06.161Z,18.98
2022-12-23T10:56:33.101Z,14.20
2022-12-23T10:59:01.165Z,15.07
2022-12-23T11:01:30.308Z,22.02
2022-12-23T11:04:06.224Z,19.45
2022-12-23T11:06:38.081Z,18.73
2022-12-23T11:09:06.346Z,8.63
2022-12-23T11:11:53.327Z,18.98
2022-12-23T11:14:34.898Z,20.42
2022-12-23T11:19:30.286Z,10.63
2022-12-23T11:21:59.024Z,19.67
2022-12-23T11:24:27.312Z,26.90
2022-12-23T11:27:00.793Z,30.40
2022-12-23T11:29:31.111Z,14.95
2022-12-23T11:31:58.123Z,16.85
2022-12-23T11:34:27.133Z,15.27
2022-12-23T11:37:01.807Z,24.30
2022-12-23T11:39:34.434Z,16.95
2022-12-23T11:42:11.948Z,27.85
2022-12-23T11:44:42.506Z,21.38
2022-12-23T11:47:35.883Z,31.27
2022-12-23T11:50:26.837Z,20.35
2022-12-23T11:53:00.896Z,29.23
2022-12-23T11:55:33.273Z,17.83
2022-12-23T11:58:02.131Z,21.80
2022-12-23T12:00:35.349Z,26.73
2022-12-23T12:03:05.094Z,34.28
2022-12-23T12:08:05.938Z,22.67
2022-12-23T12:10:35.374Z,17.15
2022-12-23T12:13:04.994Z,22.58
2022-12-23T12:15:44.780Z,16.50
2022-12-23T12:18:15.285Z,20.98
2022-12-23T12:20:45.691Z,18.15
2022-12-23T12:23:18.648Z,23.23
2022-12-23T12:25:50.699Z,12.52
2022-12-23T12:28:20.228Z,16.17
2022-12-23T12:30:50.864Z,16.17
2022-12-23T12:33:21.305Z,21.08
2022-12-23T12:35:54.288Z,17.40
2022-12-23T12:38:25.979Z,13.98
2022-12-23T12:40:57.391Z,16.15
2022-12-23T12:43:31.042Z,20.42
2022-12-23T12:46:11.831Z,14.35
2022-12-23T12:48:48.045Z,16.02
2022-12-23T12:51:23.095Z,13.80
2022-12-23T12:54:14.332Z,15.15
2022-12-23T12:56:46.524Z,19.60
2022-12-23T12:59:17.220Z,15.77
2022-12-23T13:01:53.312Z,12.40
2022-12-23T13:04:43.149Z,14.55
2022-12-23T13:07:18.607Z,13.30
2022-12-23T13:09:59.087Z,13.75
2022-12-23T13:12:43.006Z,13.60
2022-12-23T13:15:22.109Z,19.42
2022-12-23T13:18:04.099Z,11.57
2022-12-23T13:20:36.824Z,16.52
2022-12-23T13:23:41.866Z,17.23
2022-12-23T13:26:10.032Z,18.45
2022-12-23T13:28:45.355Z,15.63
2022-12-23T13:31:24.021Z,15.65
2022-12-23T13:33:58.891Z,13.77
2022-12-23T13:36:42.322Z,17.67
2022-12-23T13:39:30.455Z,16.58
2022-12-23T13:42:05.737Z,12.43
2022-12-23T13:47:09.671Z,17.00
2022-12-23T13:49:52.977Z,12.20
2022-12-23T13:52:32.109Z,13.10
2022-12-23T13:55:11.628Z,10.00
2022-12-23T13:57:49.333Z,13.60
2022-12-23T14:00:26.709Z,15.55
2022-12-23T14:03:06.092Z,12.15
2022-12-23T14:05:36.736Z,11.45
2022-12-23T14:08:06.667Z,11.93
2022-12-23T14:10:34.888Z,26.58
2022-12-23T14:13:05.171Z,14.65
2022-12-23T14:15:55.403Z,9.98
2022-12-23T14:19:06.981Z,11.82
2022-12-23T14:21:44.097Z,10.38
2022-12-23T14:24:44.633Z,13.98
2022-12-23T14:27:31.156Z,18.02
2022-12-23T14:30:09.924Z,12.32
2022-12-23T14:32:43.980Z,11.57
2022-12-23T14:35:26.543Z,14.85
2022-12-23T14:38:22.811Z,14.13
2022-12-23T14:40:53.147Z,9.07
2022-12-23T14:43:57.484Z,12.25
2022-12-23T14:46:54.274Z,12.55
2022-12-23T14:49:38.843Z,8.98
2022-12-23T14:52:48.434Z,12.45
2022-12-23T14:55:47.050Z,15.38
2022-12-23T14:58:37.805Z,11.70
2022-12-23T15:01:10.348Z,12.77
2022-12-23T15:03:44.608Z,12.95
2022-12-23T15:06:16.427Z,11.35
2022-12-23T15:08:46.094Z,16.02
2022-12-23T15:11:21.422Z,11.02
2022-12-23T15:13:50.990Z,11.48
2022-12-23T15:16:18.271Z,11.38
2022-12-23T15:18:58.051Z,13.02
2022-12-23T15:21:32.610Z,14.43
2022-12-23T15:24:00.820Z,13.40
2022-12-23T15:26:31.286Z,9.23
2022-12-23T15:29:00.382Z,12.70
2022-12-23T15:31:31.135Z,12.45
2022-12-23T15:34:07.820Z,13.32
2022-12-23T15:36:38.033Z,11.10
2022-12-23T15:39:09.999Z,8.32
2022-12-23T15:41:43.519Z,8.52
2022-12-23T15:44:15.581Z,13.73
2022-12-23T15:46:43.107Z,24.70
2022-12-23T15:49:12.254Z,10.93
2022-12-23T15:52:06.347Z,12.82
2022-12-23T15:54:34.086Z,19.02
2022-12-23T15:57:03.950Z,17.42
2022-12-23T15:59:36.848Z,12.88
2022-12-23T16:02:32.722Z,15.68
2022-12-23T16:05:01.663Z,14.80
2022-12-23T16:07:34.516Z,17.98
2022-12-23T16:10:04.427Z,11.32
2022-12-23T16:12:33.877Z,16.63
2022-12-23T16:15:01.129Z,16.52
2022-12-23T16:17:33.436Z,30.15
2022-12-23T16:20:24.671Z,11.32
2022-12-23T16:22:53.419Z,15.00
2022-12-23T16:25:24.803Z,25.02
2022-12-23T16:27:56.810Z,17.75
2022-12-23T16:30:29.139Z,14.40
2022-12-23T16:32:58.783Z,42.10
2022-12-23T16:35:48.063Z,21.83
2022-12-23T16:38:18.312Z,22.02
2022-12-23T16:40:47.688Z,31.30
2022-12-23T16:43:16.006Z,35.63
2022-12-23T16:45:44.972Z,40.03
2022-12-23T16:48:19.060Z,48.47
2022-12-23T16:50:46.608Z,30.90
2022-12-23T16:53:15.688Z,30.58
2022-12-23T16:55:50.280Z,21.13
2022-12-23T16:58:19.680Z,37.63
2022-12-23T17:00:46.727Z,37.45
2022-12-23T17:03:16.886Z,23.60
2022-12-23T17:05:44.168Z,30.13
2022-12-23T17:08:10.951Z,35.08
2022-12-23T17:10:41.299Z,28.60
2022-12-23T17:13:18.247Z,21.23
2022-12-23T17:15:45.360Z,11.48
2022-12-23T17:18:13.348Z,11.80
2022-12-23T17:20:41.286Z,15.20
2022-12-23T17:23:19.243Z,14.40
2022-12-23T17:25:47.560Z,13.68
2022-12-23T17:28:15.718Z,17.55
2022-12-23T17:30:42.855Z,18.73
2022-12-23T17:33:16.389Z,13.20
2022-12-23T17:35:43.227Z,18.17
2022-12-23T17:38:13.651Z,14.38
2022-12-23T17:40:41.296Z,17.10
2022-12-23T17:43:13.810Z,18.23
2022-12-23T17:45:40.909Z,14.98
2022-12-23T17:48:14.851Z,19.25
2022-12-23T17:50:45.579Z,25.98
2022-12-23T17:53:14.435Z,21.40
2022-12-23T17:55:41.730Z,21.95
2022-12-23T17:58:10.346Z,17.75
2022-12-23T18:00:37.897Z,24.05
2022-12-23T18:03:05.815Z,32.33
2022-12-23T18:05:35.433Z,33.60
2022-12-23T18:08:03.068Z,32.53
2022-12-23T18:10:33.986Z,25.17
2022-12-23T18:13:03.688Z,19.45
2022-12-23T18:15:34.918Z,46.65
2022-12-23T18:18:09.625Z,29.45
2022-12-23T18:20:36.455Z,38.00
2022-12-23T18:23:03.375Z,40.33
2022-12-23T18:25:30.392Z,38.55
2022-12-23T18:27:57.251Z,35.25
2022-12-23T18:30:24.391Z,23.85
2022-12-23T18:32:52.641Z,23.25
2022-12-23T18:35:26.674Z,20.67
2022-12-23T18:37:53.987Z,27.05
2022-12-23T18:40:21.035Z,19.73
2022-12-23T18:42:48.472Z,21.77
2022-12-23T18:45:28.215Z,16.80
2022-12-23T18:47:56.766Z,20.48
2022-12-23T18:50:24.004Z,23.38
2022-12-23T18:52:51.031Z,26.10
2022-12-23T18:55:18.520Z,21.30
2022-12-23T18:57:45.321Z,24.25
2022-12-23T19:00:14.290Z,19.98
2022-12-23T19:02:41.231Z,20.25
2022-12-23T19:05:15.314Z,17.10
2022-12-23T19:07:42.521Z,21.42
2022-12-23T19:10:14.294Z,17.33
2022-12-23T19:12:41.110Z,19.58
2022-12-23T19:15:08.811Z,19.92
2022-12-23T19:17:35.588Z,16.33
2022-12-23T19:20:02.310Z,20.02
2022-12-23T19:22:30.739Z,17.70
2022-12-23T19:25:05.729Z,19.08
2022-12-23T19:27:33.404Z,19.23
2022-12-23T19:30:00.427Z,15.23
2022-12-23T19:32:27.211Z,19.70
2022-12-23T19:34:54.049Z,18.85
2022-12-23T19:37:20.936Z,18.27
2022-12-23T19:39:50.272Z,27.60
2022-12-23T19:42:17.392Z,19.05
2022-12-23T19:44:44.296Z,16.95
2022-12-23T19:47:11.095Z,24.92
2022-12-23T19:49:38.193Z,19.20
2022-12-23T19:52:05.518Z,27.58
2022-12-23T19:54:33.043Z,25.90
2022-12-23T19:57:01.529Z,17.98
2022-12-23T19:59:28.363Z,19.23
2022-12-23T20:01:55.347Z,17.58
2022-12-23T20:04:24.971Z,17.95
2022-12-23T20:06:52.017Z,15.27
2022-12-23T20:09:18.876Z,15.25
2022-12-23T20:11:47.756Z,22.83
2022-12-23T20:14:17.485Z,35.78
2022-12-23T20:16:45.017Z,32.65
2022-12-23T20:19:11.823Z,26.65
2022-12-23T20:21:38.749Z,23.92
2022-12-23T20:24:06.816Z,17.67
2022-12-23T20:26:34.202Z,21.55
2022-12-23T20:29:03.630Z,22.33
2022-12-23T20:31:34.197Z,21.35
2022-12-23T20:34:01.728Z,20.60
2022-12-23T20:36:30.491Z,16.65
2022-12-23T20:38:57.612Z,19.70
2022-12-23T20:41:26.471Z,20.73
2022-12-23T20:44:31.552Z,22.65
2022-12-23T20:46:42.754Z,19.77
2022-12-23T20:49:09.522Z,24.92
2022-12-23T20:51:36.475Z,19.75
2022-12-23T20:54:03.444Z,21.60
2022-12-23T20:56:31.665Z,16.60
2022-12-23T20:59:00.433Z,17.75
2022-12-23T21:01:30.153Z,28.85
2022-12-23T21:04:01.244Z,26.10
2022-12-23T21:06:29.325Z,21.48
2022-12-23T21:08:59.011Z,22.85
2022-12-23T21:13:57.823Z,20.65
2022-12-23T21:16:29.481Z,19.15
2022-12-23T21:18:58.540Z,21.30
2022-12-23T21:21:27.019Z,19.40
2022-12-23T21:23:55.154Z,25.80
2022-12-23T21:26:23.769Z,24.90
2022-12-23T21:28:52.141Z,26.98
2022-12-23T21:31:21.471Z,28.35
2022-12-23T21:33:49.660Z,29.25
2022-12-23T21:36:21.081Z,30.13
2022-12-23T21:38:49.332Z,32.55
2022-12-23T21:41:19.056Z,31.27
2022-12-23T21:46:15.110Z,27.00
2022-12-23T21:48:43.078Z,25.33
2022-12-23T21:51:12.481Z,20.80
2022-12-23T21:53:42.736Z,27.83
2022-12-23T21:56:12.443Z,25.48
2022-12-23T22:01:08.009Z,20.92
2022-12-23T22:03:35.352Z,21.75
2022-12-23T22:06:10.143Z,25.40
2022-12-23T22:08:37.538Z,19.33
2022-12-23T22:11:08.857Z,28.23
2022-12-23T22:13:36.490Z,24.63
2022-12-23T22:16:05.070Z,30.92
2022-12-23T22:18:32.153Z,29.38
2022-12-23T22:20:59.063Z,26.33
2022-12-23T22:23:26.057Z,27.50
2022-12-23T22:25:53.908Z,29.00
2022-12-23T22:28:22.463Z,26.85
2022-12-23T22:30:49.534Z,25.20
2022-12-23T22:33:16.597Z,27.58
2022-12-23T22:35:43.827Z,28.00
2022-12-23T22:38:10.640Z,31.75
2022-12-23T22:40:37.596Z,26.88
2022-12-23T22:43:04.401Z,27.33
2022-12-23T22:45:32.775Z,35.13
2022-12-23T22:48:00.116Z,29.48
2022-12-23T22:50:27.090Z,24.92
2022-12-23T22:52:53.913Z,25.08
2022-12-23T22:55:20.894Z,21.88
2022-12-23T22:57:47.784Z,28.75
2022-12-23T23:00:15.122Z,24.70
2022-12-23T23:02:43.270Z,21.05
2022-12-23T23:05:13.030Z,20.92
2022-12-23T23:07:40.325Z,20.70
2022-12-23T23:10:08.634Z,19.80
2022-12-23T23:12:35.481Z,19.13
2022-12-23T23:15:02.328Z,19.27
2022-12-23T23:17:29.156Z,24.15
2022-12-23T23:19:57.336Z,19.60
2022-12-23T23:22:25.492Z,18.67
2022-12-23T23:24:52.683Z,17.85
2022-12-23T23:27:19.566Z,20.90
2022-12-23T23:29:46.824Z,13.35
2022-12-23T23:32:13.693Z,17.08
2022-12-23T23:34:42.265Z,16.13
2022-12-23T23:37:10.581Z,11.52
2022-12-23T23:39:37.425Z,12.98
2022-12-23T23:42:04.703Z,13.50
2022-12-23T23:44:31.563Z,11.48
2022-12-23T23:46:58.444Z,20.08
2022-12-23T23:49:25.578Z,21.17
2022-12-23T23:51:52.463Z,14.73
2022-12-23T23:54:20.685Z,18.02
2022-12-23T23:56:47.507Z,22.73
2022-12-23T23:59:14.514Z,24.48
